This is the latest recevied weather packets stored in our database for station/object EA1HTW-13. If no packets are shown the sender has not sent any weather packets the latest 1 day(s).
| Time | Temp. | Humidity | Pressure | Rain* | Wind** | Luminosity | Snow |
|---|---|---|---|---|---|---|---|
| 1778089995 | 17.78° C | 51% | 1005.6 hPa | 0 mm | - | - | - |
| 1778088915 | 18.33° C | 54% | 1005.7 hPa | 0 mm | - | - | - |
| 1778087834 | 18.89° C | 52% | 1005.8 hPa | 0 mm | - | - | - |
| 1778085674 | 21.11° C | 46% | 1005.9 hPa | 0 mm | - | - | - |
| 1778084594 | 22.78° C | 40% | 1006 hPa | 0 mm | - | - | - |
| 1778082435 | 20° C | 47% | 1006.3 hPa | 0 mm | - | - | - |
| 1778081895 | 21.11° C | 46% | 1006.4 hPa | 0 mm | - | - | - |
| 1778081354 | 21.11° C | 48% | 1006.5 hPa | 0 mm | - | - | - |
| 1778079735 | 19.44° C | 52% | 1006.8 hPa | 0 mm | - | - | - |
| 1778079194 | 18.33° C | 55% | 1007.1 hPa | 0 mm | - | - | - |
| 1778078655 | 17.78° C | 58% | 1007.1 hPa | 0 mm | - | - | - |
| 1778077034 | 17.78° C | 56% | 1007.6 hPa | 0 mm | - | - | - |
| 1778073794 | 18.89° C | 54% | 1007.9 hPa | 0 mm | - | - | - |
| 1778073254 | 19.44° C | 51% | 1007.6 hPa | 0 mm | - | - | - |
| 1778071635 | 20.56° C | 51% | 1007.6 hPa | 0 mm | - | - | - |
| 1778071094 | 20° C | 51% | 1007.6 hPa | 0 mm | - | - | - |
| 1778066774 | 18.89° C | 47% | 1008.4 hPa | 0 mm | - | - | - |
| 1778065694 | 18.33° C | 48% | 1008.5 hPa | 0 mm | - | - | - |
| 1778063534 | 18.33° C | 51% | 1008.7 hPa | 0 mm | - | - | - |
| 1778061914 | 17.78° C | 50% | 1008.7 hPa | 0 mm | - | - | - |
| 1778061374 | 17.22° C | 53% | 1008.6 hPa | 0 mm | - | - | - |
| 1778060834 | 16.67° C | 53% | 1008.9 hPa | 0 mm | - | - | - |
| 1778060294 | 17.22° C | 53% | 1008.8 hPa | 0 mm | - | - | - |
| 1778059214 | 16.67° C | 55% | 1009 hPa | 0 mm | - | - | - |
| 1778058674 | 16.67° C | 55% | 1008.8 hPa | 0 mm | - | - | - |
* Rain latest hour (hover to see other rain measurements)
** Current wind speed in m/s (hover to see current wind gust speed)